Flight Track Log - Related Links

Times and Time Zones

All times are in EDT time to prevent confusion due to time zone crossing. See the KAP409 flight status page for this flight to view local times or setup timezone preferences in your user account.

Time Position Orientation Groundspeed Altitude Reporting Facility
EDT Latitude Longitude Course Direction KTS MPH feet Rate Location/Type
Thu 01:30:30 PM 38.7000 -90.3333 180° South 115 132 1,800  Level Gateway (St. Louis) TRACON
Thu 01:31:15 PM 38.6842 -90.3300 171° South 117 135 2,300 729 Climbing Kansas City Center
Thu 01:32:17 PM 38.6442 -90.3217 171° South 118 136 3,100 774 Climbing Kansas City Center
Thu 01:33:19 PM 38.6092 -90.3131 169° South 122 140 3,900 629 Climbing Kansas City Center
Thu 01:34:21 PM 38.5753 -90.3044 169° South 124 143 4,400 581 Climbing Kansas City Center
Thu 01:35:23 PM 38.5419 -90.2906 162° South 124 143 5,100 339 Climbing Kansas City Center
Thu 01:36:25 PM 38.5044 -90.2714 158° South 137 158 5,100  Level Kansas City Center
Thu 01:37:28 PM 38.4633 -90.2486 157° South 152 175 5,100  Level Kansas City Center
Thu 01:38:30 PM 38.4217 -90.2261 157° South 159 183 5,100  Level Kansas City Center
Thu 01:39:32 PM 38.3697 -90.1975 157° South 165 190 5,100  Level Kansas City Center
Thu 01:40:34 PM 38.3275 -90.1747 157° South 166 191 5,100  Level Kansas City Center
Thu 01:41:36 PM 38.2856 -90.1506 156° South 166 191 5,100  Level Kansas City Center
Thu 01:42:38 PM 38.2439 -90.1261 155° Southeast 165 190 5,100  Level Kansas City Center
Thu 01:43:40 PM 38.2008 -90.1039 158° South 166 191 5,100  Level Kansas City Center
Thu 01:44:42 PM 38.1581 -90.0817 158° South 166 191 5,100  Level Kansas City Center
Thu 01:45:44 PM 38.1064 -90.0544 157° South 168 193 5,100  Level Kansas City Center
Thu 01:46:46 PM 38.0608 -90.0283 156° South 167 192 5,100  Level Kansas City Center
Thu 01:47:48 PM 38.0178 -90.0047 157° South 168 193 5,100  Level Kansas City Center
Thu 01:48:50 PM 37.9719 -89.9786 156° South 169 194 5,100  Level Kansas City Center
Thu 01:49:52 PM 37.9303 -89.9558 157° South 164 189 5,100  Level Kansas City Center
Thu 01:50:54 PM 37.8881 -89.9317 156° South 166 191 5,100  Level Kansas City Center
Thu 01:51:56 PM 37.8433 -89.9092 158° South 165 190 5,100  Level Kansas City Center
Thu 01:52:58 PM 37.8008 -89.8856 156° South 166 191 5,100  Level Kansas City Center
Thu 01:54:00 PM 37.7592 -89.8611 155° Southeast 165 190 5,100  Level Kansas City Center
Thu 01:55:02 PM 37.7161 -89.8378 157° South 166 191 5,100  Level Kansas City Center
Thu 01:56:04 PM 37.6739 -89.8147 157° South 166 191 5,100  Level Kansas City Center
Thu 01:57:06 PM 37.6219 -89.7867 157° South 168 193 5,100  Level Kansas City Center
Thu 01:58:08 PM 37.5797 -89.7625 156° South 167 192 5,100  Level Kansas City Center
Thu 01:59:10 PM 37.5392 -89.7411 157° South 165 190 5,100 -48 Level Kansas City Center
Thu 02:00:12 PM 37.4964 -89.7192 158° South 165 190 5,000 -387 Descending Kansas City Center
Thu 02:01:14 PM 37.4419 -89.6889 156° South 175 201 4,300 -629 Descending Kansas City Center
Thu 02:02:16 PM 37.3936 -89.6633 157° South 185 213 3,700 -581 Descending Kansas City Center
Thu 02:03:18 PM 37.3469 -89.6411 159° South 182 209 3,100 -677 Descending Kansas City Center
Thu 02:04:20 PM 37.3025 -89.6083 150° Southeast 182 209 2,300 -726 Descending Kansas City Center
Thu 02:05:22 PM 37.2594 -89.5761 149° Southeast 178 205 1,600 -677 Descending Kansas City Center

Login

Don't have an account? Register now (free) for customized features, flight alerts, and more!